<?xml version="1.0" encoding="utf-8"?>
<gpx xmlns:xsi="http://www.w3.org/2001/XMLSchema-instance" xmlns:xsd="http://www.w3.org/2001/XMLSchema" version="1.1" creator="Shapelink.com" xmlns="http://www.topografix.com/GPX/1/1" xmlns:gpxtpx="http://www.garmin.com/xmlschemas/TrackPointExtension/v1">
  <metadata>
    <name>Löpning 7.07 km, 2011-05-15</name>
    <desc></desc>
    <author><name>Jojje Borssén</name></author> 
    <time>2011-05-15T08:07:47Z</time>
  </metadata>
  <trk>
    <name>Löpning 7.07 km, 2011-05-15</name>
    <trkseg>
      <trkpt lat="46.1797253396" lon="1.87468016367">
        <ele>405.2</ele>
        <time>2011-05-15T08:07:47Z</time>
      </trkpt>
      <trkpt lat="46.1796887107" lon="1.8744976897">
        <ele>418.4</ele>
        <time>2011-05-15T08:07:53Z</time>
      </trkpt>
      <trkpt lat="46.1796771437" lon="1.87446743104">
        <ele>419.8</ele>
        <time>2011-05-15T08:07:54Z</time>
      </trkpt>
      <trkpt lat="46.1795986053" lon="1.8742594761">
        <ele>426.6</ele>
        <time>2011-05-15T08:08:00Z</time>
      </trkpt>
      <trkpt lat="46.1795289517" lon="1.87399997248">
        <ele>429</ele>
        <time>2011-05-15T08:08:05Z</time>
      </trkpt>
      <trkpt lat="46.1794642435" lon="1.87373242223">
        <ele>424</ele>
        <time>2011-05-15T08:08:10Z</time>
      </trkpt>
      <trkpt lat="46.1794019659" lon="1.87354751752">
        <ele>414.6</ele>
        <time>2011-05-15T08:08:15Z</time>
      </trkpt>
      <trkpt lat="46.1793413648" lon="1.87334383735">
        <ele>401.4</ele>
        <time>2011-05-15T08:08:21Z</time>
      </trkpt>
      <trkpt lat="46.1792930851" lon="1.87316572197">
        <ele>391.2</ele>
        <time>2011-05-15T08:08:26Z</time>
      </trkpt>
      <trkpt lat="46.179228293" lon="1.87300369985">
        <ele>382.8</ele>
        <time>2011-05-15T08:08:31Z</time>
      </trkpt>
      <trkpt lat="46.1791408698" lon="1.87283270909">
        <ele>376.4</ele>
        <time>2011-05-15T08:08:36Z</time>
      </trkpt>
      <trkpt lat="46.1790311507" lon="1.87265794647">
        <ele>370.6</ele>
        <time>2011-05-15T08:08:42Z</time>
      </trkpt>
      <trkpt lat="46.1789205934" lon="1.87252534481">
        <ele>367.6</ele>
        <time>2011-05-15T08:08:47Z</time>
      </trkpt>
      <trkpt lat="46.178811964" lon="1.87242048725">
        <ele>365.2</ele>
        <time>2011-05-15T08:08:52Z</time>
      </trkpt>
      <trkpt lat="46.1787998103" lon="1.87235100129">
        <ele>363.6</ele>
        <time>2011-05-15T08:08:57Z</time>
      </trkpt>
      <trkpt lat="46.1788278058" lon="1.87230188336">
        <ele>367.2</ele>
        <time>2011-05-15T08:09:03Z</time>
      </trkpt>
      <trkpt lat="46.1787330065" lon="1.87223901911">
        <ele>373.2</ele>
        <time>2011-05-15T08:09:08Z</time>
      </trkpt>
      <trkpt lat="46.1786223654" lon="1.87217079044">
        <ele>380.6</ele>
        <time>2011-05-15T08:09:13Z</time>
      </trkpt>
      <trkpt lat="46.1785308351" lon="1.872144136">
        <ele>386.2</ele>
        <time>2011-05-15T08:09:17Z</time>
      </trkpt>
      <trkpt lat="46.178407705" lon="1.87212619874">
        <ele>393.8</ele>
        <time>2011-05-15T08:09:23Z</time>
      </trkpt>
      <trkpt lat="46.1782545677" lon="1.87212058286">
        <ele>400</ele>
        <time>2011-05-15T08:09:29Z</time>
      </trkpt>
      <trkpt lat="46.1781248158" lon="1.87211555372">
        <ele>404</ele>
        <time>2011-05-15T08:09:34Z</time>
      </trkpt>
      <trkpt lat="46.1779340438" lon="1.87210960257">
        <ele>408.4</ele>
        <time>2011-05-15T08:09:42Z</time>
      </trkpt>
      <trkpt lat="46.1777781405" lon="1.87209124621">
        <ele>410.8</ele>
        <time>2011-05-15T08:09:48Z</time>
      </trkpt>
      <trkpt lat="46.1776234106" lon="1.87208772582">
        <ele>412.2</ele>
        <time>2011-05-15T08:09:54Z</time>
      </trkpt>
      <trkpt lat="46.1774991908" lon="1.8720858818">
        <ele>413.2</ele>
        <time>2011-05-15T08:09:59Z</time>
      </trkpt>
      <trkpt lat="46.1773695228" lon="1.87208571416">
        <ele>414.2</ele>
        <time>2011-05-15T08:10:04Z</time>
      </trkpt>
      <trkpt lat="46.1772014657" lon="1.87211337443">
        <ele>415.2</ele>
        <time>2011-05-15T08:10:10Z</time>
      </trkpt>
      <trkpt lat="46.1770477417" lon="1.87211622428">
        <ele>416.4</ele>
        <time>2011-05-15T08:10:16Z</time>
      </trkpt>
      <trkpt lat="46.1770317323" lon="1.87212502527">
        <ele>416.6</ele>
        <time>2011-05-15T08:10:17Z</time>
      </trkpt>
      <trkpt lat="46.1769302275" lon="1.87214497419">
        <ele>418</ele>
        <time>2011-05-15T08:10:22Z</time>
      </trkpt>
      <trkpt lat="46.1768357634" lon="1.87213910686">
        <ele>418.8</ele>
        <time>2011-05-15T08:10:26Z</time>
      </trkpt>
      <trkpt lat="46.176652116" lon="1.87211320679">
        <ele>420</ele>
        <time>2011-05-15T08:10:33Z</time>
      </trkpt>
      <trkpt lat="46.1764959612" lon="1.87213298808">
        <ele>421</ele>
        <time>2011-05-15T08:10:39Z</time>
      </trkpt>
      <trkpt lat="46.1763095478" lon="1.87216232473">
        <ele>422</ele>
        <time>2011-05-15T08:10:46Z</time>
      </trkpt>
      <trkpt lat="46.1761723361" lon="1.87218336329">
        <ele>423</ele>
        <time>2011-05-15T08:10:51Z</time>
      </trkpt>
      <trkpt lat="46.1760478648" lon="1.8721979478">
        <ele>423.6</ele>
        <time>2011-05-15T08:10:56Z</time>
      </trkpt>
      <trkpt lat="46.1759150955" lon="1.87222116566">
        <ele>423.8</ele>
        <time>2011-05-15T08:11:01Z</time>
      </trkpt>
      <trkpt lat="46.175782913" lon="1.87224463498">
        <ele>424.8</ele>
        <time>2011-05-15T08:11:06Z</time>
      </trkpt>
      <trkpt lat="46.1756213938" lon="1.87226877486">
        <ele>425.6</ele>
        <time>2011-05-15T08:11:12Z</time>
      </trkpt>
      <trkpt lat="46.1754890436" lon="1.87230431411">
        <ele>426</ele>
        <time>2011-05-15T08:11:17Z</time>
      </trkpt>
      <trkpt lat="46.1753278596" lon="1.8723250174">
        <ele>426.6</ele>
        <time>2011-05-15T08:11:23Z</time>
      </trkpt>
      <trkpt lat="46.1751350759" lon="1.87235686862">
        <ele>427.6</ele>
        <time>2011-05-15T08:11:30Z</time>
      </trkpt>
      <trkpt lat="46.1748896539" lon="1.87237497353">
        <ele>428.2</ele>
        <time>2011-05-15T08:11:39Z</time>
      </trkpt>
      <trkpt lat="46.1748115346" lon="1.87220909573">
        <ele>429.2</ele>
        <time>2011-05-15T08:11:44Z</time>
      </trkpt>
      <trkpt lat="46.1746770051" lon="1.87204916908">
        <ele>429.8</ele>
        <time>2011-05-15T08:11:50Z</time>
      </trkpt>
      <trkpt lat="46.1745758356" lon="1.87190466512">
        <ele>430.4</ele>
        <time>2011-05-15T08:11:55Z</time>
      </trkpt>
      <trkpt lat="46.1745516119" lon="1.87173970933">
        <ele>431.2</ele>
        <time>2011-05-15T08:11:59Z</time>
      </trkpt>
      <trkpt lat="46.1745290646" lon="1.87145489237">
        <ele>432</ele>
        <time>2011-05-15T08:12:06Z</time>
      </trkpt>
      <trkpt lat="46.1745171623" lon="1.87117493691">
        <ele>433.2</ele>
        <time>2011-05-15T08:12:13Z</time>
      </trkpt>
      <trkpt lat="46.1744629314" lon="1.8709829914">
        <ele>433.8</ele>
        <time>2011-05-15T08:12:18Z</time>
      </trkpt>
      <trkpt lat="46.1743795315" lon="1.87075232151">
        <ele>434.2</ele>
        <time>2011-05-15T08:12:24Z</time>
      </trkpt>
      <trkpt lat="46.1743408909" lon="1.87057470905">
        <ele>434.4</ele>
        <time>2011-05-15T08:12:29Z</time>
      </trkpt>
      <trkpt lat="46.1742808765" lon="1.87035066086">
        <ele>434.6</ele>
        <time>2011-05-15T08:12:35Z</time>
      </trkpt>
      <trkpt lat="46.1742084569" lon="1.87014396321">
        <ele>434.6</ele>
        <time>2011-05-15T08:12:41Z</time>
      </trkpt>
      <trkpt lat="46.1741247217" lon="1.86993081149">
        <ele>434.6</ele>
        <time>2011-05-15T08:12:47Z</time>
      </trkpt>
      <trkpt lat="46.174088931" lon="1.86984213099">
        <ele>434.6</ele>
        <time>2011-05-15T08:12:50Z</time>
      </trkpt>
      <trkpt lat="46.1739817265" lon="1.86962981746">
        <ele>435.8</ele>
        <time>2011-05-15T08:12:57Z</time>
      </trkpt>
      <trkpt lat="46.1739456843" lon="1.86956024769">
        <ele>436.2</ele>
        <time>2011-05-15T08:13:01Z</time>
      </trkpt>
      <trkpt lat="46.1739112347" lon="1.86945983253">
        <ele>436.6</ele>
        <time>2011-05-15T08:13:10Z</time>
      </trkpt>
      <trkpt lat="46.1738063771" lon="1.86927677183">
        <ele>437.8</ele>
        <time>2011-05-15T08:13:16Z</time>
      </trkpt>
      <trkpt lat="46.1737297666" lon="1.86908717325">
        <ele>438.4</ele>
        <time>2011-05-15T08:13:22Z</time>
      </trkpt>
      <trkpt lat="46.1736596101" lon="1.86892515113">
        <ele>438.6</ele>
        <time>2011-05-15T08:13:27Z</time>
      </trkpt>
      <trkpt lat="46.1736319498" lon="1.86877385783">
        <ele>438.8</ele>
        <time>2011-05-15T08:13:31Z</time>
      </trkpt>
      <trkpt lat="46.1735854303" lon="1.86857906248">
        <ele>438.8</ele>
        <time>2011-05-15T08:13:36Z</time>
      </trkpt>
      <trkpt lat="46.1735732765" lon="1.86845928512">
        <ele>439.6</ele>
        <time>2011-05-15T08:13:40Z</time>
      </trkpt>
      <trkpt lat="46.1735439399" lon="1.86822920197">
        <ele>440.4</ele>
        <time>2011-05-15T08:13:46Z</time>
      </trkpt>
      <trkpt lat="46.1735394974" lon="1.86802082794">
        <ele>441.4</ele>
        <time>2011-05-15T08:13:52Z</time>
      </trkpt>
      <trkpt lat="46.1735400004" lon="1.86798696506">
        <ele>441.6</ele>
        <time>2011-05-15T08:13:53Z</time>
      </trkpt>
      <trkpt lat="46.1735109152" lon="1.86786291294">
        <ele>442</ele>
        <time>2011-05-15T08:13:57Z</time>
      </trkpt>
      <trkpt lat="46.1735369829" lon="1.86776836511">
        <ele>442.4</ele>
        <time>2011-05-15T08:14:00Z</time>
      </trkpt>
      <trkpt lat="46.173554082" lon="1.8675848015">
        <ele>443.2</ele>
        <time>2011-05-15T08:14:06Z</time>
      </trkpt>
      <trkpt lat="46.1735675768" lon="1.86745236748">
        <ele>443.8</ele>
        <time>2011-05-15T08:14:10Z</time>
      </trkpt>
      <trkpt lat="46.1735738632" lon="1.86724390962">
        <ele>444.6</ele>
        <time>2011-05-15T08:14:16Z</time>
      </trkpt>
      <trkpt lat="46.1735845921" lon="1.8670735056">
        <ele>445.6</ele>
        <time>2011-05-15T08:14:21Z</time>
      </trkpt>
      <trkpt lat="46.1735862685" lon="1.86704249257">
        <ele>445.8</ele>
        <time>2011-05-15T08:14:22Z</time>
      </trkpt>
      <trkpt lat="46.1736051277" lon="1.86689304329">
        <ele>446.4</ele>
        <time>2011-05-15T08:14:26Z</time>
      </trkpt>
      <trkpt lat="46.1736218915" lon="1.86663035454">
        <ele>447</ele>
        <time>2011-05-15T08:14:33Z</time>
      </trkpt>
      <trkpt lat="46.1736169462" lon="1.86643187115">
        <ele>448</ele>
        <time>2011-05-15T08:14:38Z</time>
      </trkpt>
      <trkpt lat="46.173628597" lon="1.86619248409">
        <ele>449</ele>
        <time>2011-05-15T08:14:44Z</time>
      </trkpt>
      <trkpt lat="46.173606385" lon="1.86601185414">
        <ele>450</ele>
        <time>2011-05-15T08:14:49Z</time>
      </trkpt>
      <trkpt lat="46.1736187064" lon="1.86576919814">
        <ele>450.8</ele>
        <time>2011-05-15T08:14:55Z</time>
      </trkpt>
      <trkpt lat="46.1736145155" lon="1.86561522264">
        <ele>451.8</ele>
        <time>2011-05-15T08:14:59Z</time>
      </trkpt>
      <trkpt lat="46.1735808202" lon="1.86538849224">
        <ele>452.6</ele>
        <time>2011-05-15T08:15:05Z</time>
      </trkpt>
      <trkpt lat="46.1735541658" lon="1.86521121506">
        <ele>453.8</ele>
        <time>2011-05-15T08:15:10Z</time>
      </trkpt>
      <trkpt lat="46.1735076462" lon="1.86500309248">
        <ele>454.8</ele>
        <time>2011-05-15T08:15:16Z</time>
      </trkpt>
      <trkpt lat="46.1734515713" lon="1.86479195242">
        <ele>455.2</ele>
        <time>2011-05-15T08:15:22Z</time>
      </trkpt>
      <trkpt lat="46.1733818339" lon="1.8645885237">
        <ele>455.6</ele>
        <time>2011-05-15T08:15:28Z</time>
      </trkpt>
      <trkpt lat="46.1733292794" lon="1.86445466476">
        <ele>455.6</ele>
        <time>2011-05-15T08:15:32Z</time>
      </trkpt>
      <trkpt lat="46.1732779822" lon="1.86428451219">
        <ele>455.6</ele>
        <time>2011-05-15T08:15:37Z</time>
      </trkpt>
      <trkpt lat="46.173207658" lon="1.86412877649">
        <ele>455.8</ele>
        <time>2011-05-15T08:15:42Z</time>
      </trkpt>
      <trkpt lat="46.1730784929" lon="1.86391604387">
        <ele>455.8</ele>
        <time>2011-05-15T08:15:49Z</time>
      </trkpt>
      <trkpt lat="46.1729900639" lon="1.86379668561">
        <ele>455.8</ele>
        <time>2011-05-15T08:15:53Z</time>
      </trkpt>
      <trkpt lat="46.1728983659" lon="1.86363810006">
        <ele>455.8</ele>
        <time>2011-05-15T08:15:59Z</time>
      </trkpt>
      <trkpt lat="46.1728229288" lon="1.86352351949">
        <ele>455.8</ele>
        <time>2011-05-15T08:16:04Z</time>
      </trkpt>
      <trkpt lat="46.1727378525" lon="1.86342084122">
        <ele>455.8</ele>
        <time>2011-05-15T08:16:09Z</time>
      </trkpt>
      <trkpt lat="46.1726376888" lon="1.86326720099">
        <ele>456.6</ele>
        <time>2011-05-15T08:16:15Z</time>
      </trkpt>
      <trkpt lat="46.1724951965" lon="1.86311641061">
        <ele>457.4</ele>
        <time>2011-05-15T08:16:22Z</time>
      </trkpt>
      <trkpt lat="46.1723980503" lon="1.86295162245">
        <ele>458.6</ele>
        <time>2011-05-15T08:16:28Z</time>
      </trkpt>
      <trkpt lat="46.1723408019" lon="1.86283285093">
        <ele>459.2</ele>
        <time>2011-05-15T08:16:32Z</time>
      </trkpt>
      <trkpt lat="46.1722182586" lon="1.86262942222">
        <ele>460.4</ele>
        <time>2011-05-15T08:16:39Z</time>
      </trkpt>
      <trkpt lat="46.1721229563" lon="1.86250327462">
        <ele>461.2</ele>
        <time>2011-05-15T08:16:44Z</time>
      </trkpt>
      <trkpt lat="46.1720796219" lon="1.86242129964">
        <ele>462</ele>
        <time>2011-05-15T08:16:48Z</time>
      </trkpt>
      <trkpt lat="46.1720451723" lon="1.86231409514">
        <ele>462.6</ele>
        <time>2011-05-15T08:16:52Z</time>
      </trkpt>
      <trkpt lat="46.171966131" lon="1.86220093949">
        <ele>463.2</ele>
        <time>2011-05-15T08:16:56Z</time>
      </trkpt>
      <trkpt lat="46.1718555737" lon="1.86206573944">
        <ele>464.6</ele>
        <time>2011-05-15T08:17:01Z</time>
      </trkpt>
      <trkpt lat="46.1717532307" lon="1.86194470481">
        <ele>465.2</ele>
        <time>2011-05-15T08:17:06Z</time>
      </trkpt>
      <trkpt lat="46.1716814817" lon="1.86182660384">
        <ele>466.6</ele>
        <time>2011-05-15T08:17:11Z</time>
      </trkpt>
      <trkpt lat="46.1716244848" lon="1.86174714342">
        <ele>467</ele>
        <time>2011-05-15T08:17:14Z</time>
      </trkpt>
      <trkpt lat="46.1715082278" lon="1.8616168887">
        <ele>468.4</ele>
        <time>2011-05-15T08:17:19Z</time>
      </trkpt>
      <trkpt lat="46.1714151049" lon="1.86149979355">
        <ele>469.2</ele>
        <time>2011-05-15T08:17:24Z</time>
      </trkpt>
      <trkpt lat="46.1713274302" lon="1.86140717356">
        <ele>470</ele>
        <time>2011-05-15T08:17:28Z</time>
      </trkpt>
      <trkpt lat="46.1712311222" lon="1.86127700265">
        <ele>471</ele>
        <time>2011-05-15T08:17:33Z</time>
      </trkpt>
      <trkpt lat="46.1711545116" lon="1.86116024279">
        <ele>471.6</ele>
        <time>2011-05-15T08:17:37Z</time>
      </trkpt>
      <trkpt lat="46.1710770629" lon="1.86104960171">
        <ele>472</ele>
        <time>2011-05-15T08:17:41Z</time>
      </trkpt>
      <trkpt lat="46.1709337324" lon="1.86088397536">
        <ele>472.8</ele>
        <time>2011-05-15T08:17:48Z</time>
      </trkpt>
      <trkpt lat="46.1708012984" lon="1.86070057939">
        <ele>473.8</ele>
        <time>2011-05-15T08:17:55Z</time>
      </trkpt>
      <trkpt lat="46.1706861311" lon="1.86055716508">
        <ele>474.2</ele>
        <time>2011-05-15T08:18:01Z</time>
      </trkpt>
      <trkpt lat="46.1705947683" lon="1.86043629808">
        <ele>474.4</ele>
        <time>2011-05-15T08:18:06Z</time>
      </trkpt>
      <trkpt lat="46.1705035733" lon="1.86029497925">
        <ele>474.6</ele>
        <time>2011-05-15T08:18:11Z</time>
      </trkpt>
      <trkpt lat="46.1703973746" lon="1.86011409785">
        <ele>474.6</ele>
        <time>2011-05-15T08:18:17Z</time>
      </trkpt>
      <trkpt lat="46.1702828778" lon="1.85995744014">
        <ele>474.8</ele>
        <time>2011-05-15T08:18:23Z</time>
      </trkpt>
      <trkpt lat="46.1701391283" lon="1.85975627454">
        <ele>474.8</ele>
        <time>2011-05-15T08:18:30Z</time>
      </trkpt>
      <trkpt lat="46.170066541" lon="1.85964462763">
        <ele>474.8</ele>
        <time>2011-05-15T08:18:34Z</time>
      </trkpt>
      <trkpt lat="46.169933185" lon="1.85946642843">
        <ele>474.8</ele>
        <time>2011-05-15T08:18:40Z</time>
      </trkpt>
      <trkpt lat="46.1697979011" lon="1.85929317456">
        <ele>474.8</ele>
        <time>2011-05-15T08:18:46Z</time>
      </trkpt>
      <trkpt lat="46.1696669758" lon="1.85913048188">
        <ele>474.8</ele>
        <time>2011-05-15T08:18:52Z</time>
      </trkpt>
      <trkpt lat="46.1695274172" lon="1.85895706037">
        <ele>474.8</ele>
        <time>2011-05-15T08:18:58Z</time>
      </trkpt>
      <trkpt lat="46.1694280079" lon="1.85882965549">
        <ele>474.8</ele>
        <time>2011-05-15T08:19:03Z</time>
      </trkpt>
      <trkpt lat="46.1693287662" lon="1.85869688619">
        <ele>474.8</ele>
        <time>2011-05-15T08:19:08Z</time>
      </trkpt>
      <trkpt lat="46.1692183765" lon="1.85856629619">
        <ele>474.8</ele>
        <time>2011-05-15T08:19:13Z</time>
      </trkpt>
      <trkpt lat="46.1690934024" lon="1.85840771064">
        <ele>474.8</ele>
        <time>2011-05-15T08:19:19Z</time>
      </trkpt>
      <trkpt lat="46.1690496489" lon="1.85836504677">
        <ele>474.8</ele>
        <time>2011-05-15T08:19:21Z</time>
      </trkpt>
      <trkpt lat="46.1689716972" lon="1.85831861105">
        <ele>474.8</ele>
        <time>2011-05-15T08:19:24Z</time>
      </trkpt>
      <trkpt lat="46.1688520037" lon="1.85828131159">
        <ele>474.8</ele>
        <time>2011-05-15T08:19:29Z</time>
      </trkpt>
      <trkpt lat="46.1688131955" lon="1.85828307179">
        <ele>474.2</ele>
        <time>2011-05-15T08:19:32Z</time>
      </trkpt>
      <trkpt lat="46.1687582941" lon="1.85849513386">
        <ele>473.6</ele>
        <time>2011-05-15T08:19:38Z</time>
      </trkpt>
      <trkpt lat="46.1686533527" lon="1.85872521702">
        <ele>473.2</ele>
        <time>2011-05-15T08:19:44Z</time>
      </trkpt>
      <trkpt lat="46.168551764" lon="1.85888472457">
        <ele>473</ele>
        <time>2011-05-15T08:19:49Z</time>
      </trkpt>
      <trkpt lat="46.1684057513" lon="1.85907876556">
        <ele>472.8</ele>
        <time>2011-05-15T08:19:56Z</time>
      </trkpt>
      <trkpt lat="46.1682323298" lon="1.85920767918">
        <ele>472.8</ele>
        <time>2011-05-15T08:20:03Z</time>
      </trkpt>
      <trkpt lat="46.1681283943" lon="1.85916903862">
        <ele>472.8</ele>
        <time>2011-05-15T08:20:07Z</time>
      </trkpt>
      <trkpt lat="46.1679796994" lon="1.85905873282">
        <ele>472.8</ele>
        <time>2011-05-15T08:20:13Z</time>
      </trkpt>
      <trkpt lat="46.1678212814" lon="1.85895236651">
        <ele>472.8</ele>
        <time>2011-05-15T08:20:19Z</time>
      </trkpt>
      <trkpt lat="46.1677097184" lon="1.85886075234">
        <ele>472.8</ele>
        <time>2011-05-15T08:20:24Z</time>
      </trkpt>
      <trkpt lat="46.1675846604" lon="1.85876779707">
        <ele>472.8</ele>
        <time>2011-05-15T08:20:29Z</time>
      </trkpt>
      <trkpt lat="46.167406545" lon="1.85866394533">
        <ele>472.8</ele>
        <time>2011-05-15T08:20:36Z</time>
      </trkpt>
      <trkpt lat="46.1673108237" lon="1.85859714158">
        <ele>472.8</ele>
        <time>2011-05-15T08:20:40Z</time>
      </trkpt>
      <trkpt lat="46.167213007" lon="1.85848272865">
        <ele>472.8</ele>
        <time>2011-05-15T08:20:45Z</time>
      </trkpt>
      <trkpt lat="46.1670608755" lon="1.85834995935">
        <ele>472.8</ele>
        <time>2011-05-15T08:20:51Z</time>
      </trkpt>
      <trkpt lat="46.166879575" lon="1.85819849842">
        <ele>472.8</ele>
        <time>2011-05-15T08:20:58Z</time>
      </trkpt>
      <trkpt lat="46.1667360769" lon="1.85806656731">
        <ele>472.8</ele>
        <time>2011-05-15T08:21:04Z</time>
      </trkpt>
      <trkpt lat="46.1665807602" lon="1.85785819328">
        <ele>472.8</ele>
        <time>2011-05-15T08:21:11Z</time>
      </trkpt>
      <trkpt lat="46.166457714" lon="1.85770631325">
        <ele>472.8</ele>
        <time>2011-05-15T08:21:16Z</time>
      </trkpt>
      <trkpt lat="46.1662995475" lon="1.85753750179">
        <ele>472.8</ele>
        <time>2011-05-15T08:21:22Z</time>
      </trkpt>
      <trkpt lat="46.1661237791" lon="1.85741127037">
        <ele>472.8</ele>
        <time>2011-05-15T08:21:28Z</time>
      </trkpt>
      <trkpt lat="46.1659808677" lon="1.85723986052">
        <ele>472.8</ele>
        <time>2011-05-15T08:21:34Z</time>
      </trkpt>
      <trkpt lat="46.1658601683" lon="1.85704104185">
        <ele>472.8</ele>
        <time>2011-05-15T08:21:40Z</time>
      </trkpt>
      <trkpt lat="46.1657383793" lon="1.85683006943">
        <ele>472.8</ele>
        <time>2011-05-15T08:21:46Z</time>
      </trkpt>
      <trkpt lat="46.1655976472" lon="1.85667450136">
        <ele>472.8</ele>
        <time>2011-05-15T08:21:52Z</time>
      </trkpt>
      <trkpt lat="46.1654585077" lon="1.85651901712">
        <ele>472.8</ele>
        <time>2011-05-15T08:21:58Z</time>
      </trkpt>
      <trkpt lat="46.1653539854" lon="1.8563799614">
        <ele>473</ele>
        <time>2011-05-15T08:22:03Z</time>
      </trkpt>
      <trkpt lat="46.1652177795" lon="1.85623964839">
        <ele>473.8</ele>
        <time>2011-05-15T08:22:09Z</time>
      </trkpt>
      <trkpt lat="46.1651029475" lon="1.85613110279">
        <ele>474.2</ele>
        <time>2011-05-15T08:22:14Z</time>
      </trkpt>
      <trkpt lat="46.164951738" lon="1.85603546531">
        <ele>474.4</ele>
        <time>2011-05-15T08:22:20Z</time>
      </trkpt>
      <trkpt lat="46.1647820883" lon="1.85603965626">
        <ele>474.6</ele>
        <time>2011-05-15T08:22:26Z</time>
      </trkpt>
      <trkpt lat="46.1645845269" lon="1.85604510449">
        <ele>474.8</ele>
        <time>2011-05-15T08:22:33Z</time>
      </trkpt>
      <trkpt lat="46.1644489078" lon="1.85604971454">
        <ele>474.8</ele>
        <time>2011-05-15T08:22:38Z</time>
      </trkpt>
      <trkpt lat="46.1643269512" lon="1.85606253884">
        <ele>474.8</ele>
        <time>2011-05-15T08:22:43Z</time>
      </trkpt>
      <trkpt lat="46.1641814414" lon="1.85610771728">
        <ele>474.8</ele>
        <time>2011-05-15T08:22:49Z</time>
      </trkpt>
      <trkpt lat="46.1640599038" lon="1.8561448491">
        <ele>474.8</ele>
        <time>2011-05-15T08:22:54Z</time>
      </trkpt>
      <trkpt lat="46.1639169924" lon="1.85618759679">
        <ele>474.8</ele>
        <time>2011-05-15T08:23:00Z</time>
      </trkpt>
      <trkpt lat="46.1637854804" lon="1.85624987431">
        <ele>474.8</ele>
        <time>2011-05-15T08:23:05Z</time>
      </trkpt>
      <trkpt lat="46.1636493584" lon="1.85633796808">
        <ele>474.8</ele>
        <time>2011-05-15T08:23:10Z</time>
      </trkpt>
      <trkpt lat="46.1634639507" lon="1.85647073737">
        <ele>474.8</ele>
        <time>2011-05-15T08:23:17Z</time>
      </trkpt>
      <trkpt lat="46.1633048623" lon="1.85660241702">
        <ele>474.8</ele>
        <time>2011-05-15T08:23:23Z</time>
      </trkpt>
      <trkpt lat="46.1631771221" lon="1.85667626156">
        <ele>474.8</ele>
        <time>2011-05-15T08:23:28Z</time>
      </trkpt>
      <trkpt lat="46.1630189557" lon="1.85673904199">
        <ele>474.6</ele>
        <time>2011-05-15T08:23:34Z</time>
      </trkpt>
      <trkpt lat="46.1628791456" lon="1.85679947549">
        <ele>473.8</ele>
        <time>2011-05-15T08:23:39Z</time>
      </trkpt>
      <trkpt lat="46.1627203086" lon="1.85685756206">
        <ele>473.4</ele>
        <time>2011-05-15T08:23:45Z</time>
      </trkpt>
      <trkpt lat="46.1625566939" lon="1.85692310852">
        <ele>473</ele>
        <time>2011-05-15T08:23:51Z</time>
      </trkpt>
      <trkpt lat="46.1624235893" lon="1.85692931112">
        <ele>473</ele>
        <time>2011-05-15T08:23:56Z</time>
      </trkpt>
      <trkpt lat="46.1622833601" lon="1.85693408881">
        <ele>472.8</ele>
        <time>2011-05-15T08:24:01Z</time>
      </trkpt>
      <trkpt lat="46.1621081784" lon="1.85694758366">
        <ele>472.8</ele>
        <time>2011-05-15T08:24:07Z</time>
      </trkpt>
      <trkpt lat="46.1619401213" lon="1.85694054287">
        <ele>472.8</ele>
        <time>2011-05-15T08:24:13Z</time>
      </trkpt>
      <trkpt lat="46.1617822901" lon="1.85695076879">
        <ele>472.8</ele>
        <time>2011-05-15T08:24:19Z</time>
      </trkpt>
      <trkpt lat="46.1616162447" lon="1.85699158864">
        <ele>472.8</ele>
        <time>2011-05-15T08:24:25Z</time>
      </trkpt>
      <trkpt lat="46.1614171746" lon="1.8570368509">
        <ele>472.8</ele>
        <time>2011-05-15T08:24:32Z</time>
      </trkpt>
      <trkpt lat="46.1612995765" lon="1.85708395718">
        <ele>472.8</ele>
        <time>2011-05-15T08:24:37Z</time>
      </trkpt>
      <trkpt lat="46.1612492851" lon="1.85711010871">
        <ele>472.8</ele>
        <time>2011-05-15T08:24:39Z</time>
      </trkpt>
      <trkpt lat="46.1610877659" lon="1.85716542925">
        <ele>472.8</ele>
        <time>2011-05-15T08:24:45Z</time>
      </trkpt>
      <trkpt lat="46.1609034479" lon="1.85715562242">
        <ele>472.8</ele>
        <time>2011-05-15T08:24:51Z</time>
      </trkpt>
      <trkpt lat="46.1607438565" lon="1.85713986445">
        <ele>472.8</ele>
        <time>2011-05-15T08:24:56Z</time>
      </trkpt>
      <trkpt lat="46.1605726981" lon="1.85716417196">
        <ele>472.8</ele>
        <time>2011-05-15T08:25:01Z</time>
      </trkpt>
      <trkpt lat="46.1603958401" lon="1.85717213477">
        <ele>472.8</ele>
        <time>2011-05-15T08:25:07Z</time>
      </trkpt>
      <trkpt lat="46.1602592989" lon="1.85716375287">
        <ele>472.8</ele>
        <time>2011-05-15T08:25:12Z</time>
      </trkpt>
      <trkpt lat="46.1600536071" lon="1.85712008317">
        <ele>472.8</ele>
        <time>2011-05-15T08:25:19Z</time>
      </trkpt>
      <trkpt lat="46.1598678642" lon="1.8570571351">
        <ele>472.8</ele>
        <time>2011-05-15T08:25:26Z</time>
      </trkpt>
      <trkpt lat="46.1598454845" lon="1.85705059721">
        <ele>472.8</ele>
        <time>2011-05-15T08:25:27Z</time>
      </trkpt>
      <trkpt lat="46.159719756" lon="1.8569292273">
        <ele>472.8</ele>
        <time>2011-05-15T08:25:33Z</time>
      </trkpt>
      <trkpt lat="46.1596038343" lon="1.85676242749">
        <ele>472.4</ele>
        <time>2011-05-15T08:25:39Z</time>
      </trkpt>
      <trkpt lat="46.1595195124" lon="1.85668472728">
        <ele>471.8</ele>
        <time>2011-05-15T08:25:43Z</time>
      </trkpt>
      <trkpt lat="46.1594305805" lon="1.85658540177">
        <ele>471.4</ele>
        <time>2011-05-15T08:25:47Z</time>
      </trkpt>
      <trkpt lat="46.1593751761" lon="1.85646134965">
        <ele>471.2</ele>
        <time>2011-05-15T08:25:51Z</time>
      </trkpt>
      <trkpt lat="46.1593678838" lon="1.85642589421">
        <ele>471.2</ele>
        <time>2011-05-15T08:25:52Z</time>
      </trkpt>
      <trkpt lat="46.1593389663" lon="1.85627267308">
        <ele>471</ele>
        <time>2011-05-15T08:25:56Z</time>
      </trkpt>
      <trkpt lat="46.159314072" lon="1.85624903612">
        <ele>471</ele>
        <time>2011-05-15T08:25:57Z</time>
      </trkpt>
      <trkpt lat="46.1591424946" lon="1.85618223238">
        <ele>470.8</ele>
        <time>2011-05-15T08:26:03Z</time>
      </trkpt>
      <trkpt lat="46.1591149181" lon="1.85619044664">
        <ele>470.8</ele>
        <time>2011-05-15T08:26:04Z</time>
      </trkpt>
      <trkpt lat="46.1590429176" lon="1.85625222124">
        <ele>470.8</ele>
        <time>2011-05-15T08:26:07Z</time>
      </trkpt>
      <trkpt lat="46.1588879362" lon="1.85638281124">
        <ele>470.8</ele>
        <time>2011-05-15T08:26:13Z</time>
      </trkpt>
      <trkpt lat="46.1587933884" lon="1.85645430885">
        <ele>470.8</ele>
        <time>2011-05-15T08:26:17Z</time>
      </trkpt>
      <trkpt lat="46.1586320368" lon="1.85651650255">
        <ele>470.8</ele>
        <time>2011-05-15T08:26:23Z</time>
      </trkpt>
      <trkpt lat="46.158575459" lon="1.85651834657">
        <ele>470.8</ele>
        <time>2011-05-15T08:26:25Z</time>
      </trkpt>
      <trkpt lat="46.1583955834" lon="1.85641097443">
        <ele>470.8</ele>
        <time>2011-05-15T08:26:32Z</time>
      </trkpt>
      <trkpt lat="46.1582352377" lon="1.85629689677">
        <ele>470.8</ele>
        <time>2011-05-15T08:26:38Z</time>
      </trkpt>
      <trkpt lat="46.1580853693" lon="1.85614560347">
        <ele>470.8</ele>
        <time>2011-05-15T08:26:44Z</time>
      </trkpt>
      <trkpt lat="46.1579464812" lon="1.85596346479">
        <ele>470.8</ele>
        <time>2011-05-15T08:26:50Z</time>
      </trkpt>
      <trkpt lat="46.1578406178" lon="1.85574587066">
        <ele>470.8</ele>
        <time>2011-05-15T08:26:56Z</time>
      </trkpt>
      <trkpt lat="46.157768282" lon="1.85551075837">
        <ele>470.8</ele>
        <time>2011-05-15T08:27:02Z</time>
      </trkpt>
      <trkpt lat="46.157793763" lon="1.85527405351">
        <ele>470.8</ele>
        <time>2011-05-15T08:27:08Z</time>
      </trkpt>
      <trkpt lat="46.1578708765" lon="1.8550366781">
        <ele>470.8</ele>
        <time>2011-05-15T08:27:14Z</time>
      </trkpt>
      <trkpt lat="46.1579441343" lon="1.85485847891">
        <ele>470.8</ele>
        <time>2011-05-15T08:27:19Z</time>
      </trkpt>
      <trkpt lat="46.1580318928" lon="1.85469335548">
        <ele>470.8</ele>
        <time>2011-05-15T08:27:24Z</time>
      </trkpt>
      <trkpt lat="46.1581231717" lon="1.8545443253">
        <ele>470.8</ele>
        <time>2011-05-15T08:27:29Z</time>
      </trkpt>
      <trkpt lat="46.1582646582" lon="1.85436369535">
        <ele>470.8</ele>
        <time>2011-05-15T08:27:36Z</time>
      </trkpt>
      <trkpt lat="46.1584036301" lon="1.85423059078">
        <ele>471.4</ele>
        <time>2011-05-15T08:27:42Z</time>
      </trkpt>
      <trkpt lat="46.1585637244" lon="1.85413478566">
        <ele>472</ele>
        <time>2011-05-15T08:27:48Z</time>
      </trkpt>
      <trkpt lat="46.1587443543" lon="1.85406211459">
        <ele>472.4</ele>
        <time>2011-05-15T08:27:55Z</time>
      </trkpt>
      <trkpt lat="46.1588995871" lon="1.85405021229">
        <ele>472.6</ele>
        <time>2011-05-15T08:28:01Z</time>
      </trkpt>
      <trkpt lat="46.1590898562" lon="1.85407728583">
        <ele>472.8</ele>
        <time>2011-05-15T08:28:08Z</time>
      </trkpt>
      <trkpt lat="46.1592688936" lon="1.85408089005">
        <ele>472.8</ele>
        <time>2011-05-15T08:28:14Z</time>
      </trkpt>
      <trkpt lat="46.1594377889" lon="1.85404292004">
        <ele>472.8</ele>
        <time>2011-05-15T08:28:20Z</time>
      </trkpt>
      <trkpt lat="46.1595895013" lon="1.85394225342">
        <ele>472.6</ele>
        <time>2011-05-15T08:28:26Z</time>
      </trkpt>
      <trkpt lat="46.1597521101" lon="1.85384208971">
        <ele>471.8</ele>
        <time>2011-05-15T08:28:32Z</time>
      </trkpt>
      <trkpt lat="46.1599367634" lon="1.853759528">
        <ele>471.2</ele>
        <time>2011-05-15T08:28:39Z</time>
      </trkpt>
      <trkpt lat="46.1601393539" lon="1.85377000537">
        <ele>471</ele>
        <time>2011-05-15T08:28:46Z</time>
      </trkpt>
      <trkpt lat="46.1602803375" lon="1.85383379163">
        <ele>471</ele>
        <time>2011-05-15T08:28:51Z</time>
      </trkpt>
      <trkpt lat="46.1604183036" lon="1.85388777107">
        <ele>470.8</ele>
        <time>2011-05-15T08:28:56Z</time>
      </trkpt>
      <trkpt lat="46.1605537551" lon="1.85392833947">
        <ele>470.8</ele>
        <time>2011-05-15T08:29:01Z</time>
      </trkpt>
      <trkpt lat="46.1607157772" lon="1.85394359452">
        <ele>470.8</ele>
        <time>2011-05-15T08:29:07Z</time>
      </trkpt>
      <trkpt lat="46.1608504743" lon="1.85391920319">
        <ele>470.2</ele>
        <time>2011-05-15T08:29:12Z</time>
      </trkpt>
      <trkpt lat="46.1609841656" lon="1.85388860926">
        <ele>469.6</ele>
        <time>2011-05-15T08:29:18Z</time>
      </trkpt>
      <trkpt lat="46.161149792" lon="1.85378282968">
        <ele>469.2</ele>
        <time>2011-05-15T08:29:24Z</time>
      </trkpt>
      <trkpt lat="46.1613202798" lon="1.85369942978">
        <ele>469</ele>
        <time>2011-05-15T08:29:30Z</time>
      </trkpt>
      <trkpt lat="46.161499401" lon="1.85366791383">
        <ele>468.2</ele>
        <time>2011-05-15T08:29:36Z</time>
      </trkpt>
      <trkpt lat="46.1616683801" lon="1.85357495856">
        <ele>467.4</ele>
        <time>2011-05-15T08:29:42Z</time>
      </trkpt>
      <trkpt lat="46.1618281391" lon="1.85349533051">
        <ele>467</ele>
        <time>2011-05-15T08:29:48Z</time>
      </trkpt>
      <trkpt lat="46.16199628" lon="1.85344193781">
        <ele>466.8</ele>
        <time>2011-05-15T08:29:54Z</time>
      </trkpt>
      <trkpt lat="46.1620229345" lon="1.85343229862">
        <ele>466.8</ele>
        <time>2011-05-15T08:29:55Z</time>
      </trkpt>
      <trkpt lat="46.1621966913" lon="1.85337857064">
        <ele>467.4</ele>
        <time>2011-05-15T08:30:01Z</time>
      </trkpt>
      <trkpt lat="46.1623698613" lon="1.85337245186">
        <ele>468</ele>
        <time>2011-05-15T08:30:07Z</time>
      </trkpt>
      <trkpt lat="46.1625081627" lon="1.85338644963">
        <ele>468.2</ele>
        <time>2011-05-15T08:30:12Z</time>
      </trkpt>
      <trkpt lat="46.1626474699" lon="1.85336298031">
        <ele>468.4</ele>
        <time>2011-05-15T08:30:17Z</time>
      </trkpt>
      <trkpt lat="46.1627899622" lon="1.85330145716">
        <ele>468.6</ele>
        <time>2011-05-15T08:30:22Z</time>
      </trkpt>
      <trkpt lat="46.162965563" lon="1.85320581969">
        <ele>468.6</ele>
        <time>2011-05-15T08:30:28Z</time>
      </trkpt>
      <trkpt lat="46.1631412476" lon="1.85314127906">
        <ele>468.6</ele>
        <time>2011-05-15T08:30:34Z</time>
      </trkpt>
      <trkpt lat="46.1632238931" lon="1.85307112255">
        <ele>468.6</ele>
        <time>2011-05-15T08:30:38Z</time>
      </trkpt>
      <trkpt lat="46.163307293" lon="1.85301345508">
        <ele>468.6</ele>
        <time>2011-05-15T08:30:42Z</time>
      </trkpt>
      <trkpt lat="46.1634570776" lon="1.85288244598">
        <ele>468.6</ele>
        <time>2011-05-15T08:30:49Z</time>
      </trkpt>
      <trkpt lat="46.1635840634" lon="1.8528106131">
        <ele>468.6</ele>
        <time>2011-05-15T08:30:55Z</time>
      </trkpt>
      <trkpt lat="46.1637137314" lon="1.85279745352">
        <ele>468.6</ele>
        <time>2011-05-15T08:31:00Z</time>
      </trkpt>
      <trkpt lat="46.163911628" lon="1.85279192146">
        <ele>469</ele>
        <time>2011-05-15T08:31:07Z</time>
      </trkpt>
      <trkpt lat="46.1641110334" lon="1.85278186318">
        <ele>470</ele>
        <time>2011-05-15T08:31:14Z</time>
      </trkpt>
      <trkpt lat="46.1643102712" lon="1.85280818235">
        <ele>470.4</ele>
        <time>2011-05-15T08:31:21Z</time>
      </trkpt>
      <trkpt lat="46.1644764004" lon="1.85286425726">
        <ele>470.4</ele>
        <time>2011-05-15T08:31:27Z</time>
      </trkpt>
      <trkpt lat="46.1646861156" lon="1.85286299998">
        <ele>470.6</ele>
        <time>2011-05-15T08:31:34Z</time>
      </trkpt>
      <trkpt lat="46.1647537575" lon="1.85287833885">
        <ele>470.6</ele>
        <time>2011-05-15T08:31:37Z</time>
      </trkpt>
      <trkpt lat="46.1649292745" lon="1.85294053255">
        <ele>470.6</ele>
        <time>2011-05-15T08:31:44Z</time>
      </trkpt>
      <trkpt lat="46.1650668215" lon="1.85299048867">
        <ele>470</ele>
        <time>2011-05-15T08:31:49Z</time>
      </trkpt>
      <trkpt lat="46.1651803124" lon="1.85304170208">
        <ele>469.4</ele>
        <time>2011-05-15T08:31:54Z</time>
      </trkpt>
      <trkpt lat="46.165297659" lon="1.85309760936">
        <ele>469</ele>
        <time>2011-05-15T08:31:59Z</time>
      </trkpt>
      <trkpt lat="46.1654874252" lon="1.85317153771">
        <ele>468.8</ele>
        <time>2011-05-15T08:32:07Z</time>
      </trkpt>
      <trkpt lat="46.1656015867" lon="1.85325049521">
        <ele>468.8</ele>
        <time>2011-05-15T08:32:11Z</time>
      </trkpt>
      <trkpt lat="46.1657311709" lon="1.85334495923">
        <ele>468.8</ele>
        <time>2011-05-15T08:32:16Z</time>
      </trkpt>
      <trkpt lat="46.1658946179" lon="1.85344160253">
        <ele>468.6</ele>
        <time>2011-05-15T08:32:22Z</time>
      </trkpt>
      <trkpt lat="46.1660033312" lon="1.85342726948">
        <ele>468.6</ele>
        <time>2011-05-15T08:32:27Z</time>
      </trkpt>
      <trkpt lat="46.166157139" lon="1.85339701082">
        <ele>468.6</ele>
        <time>2011-05-15T08:32:34Z</time>
      </trkpt>
      <trkpt lat="46.1662244457" lon="1.85336951819">
        <ele>468.6</ele>
        <time>2011-05-15T08:32:37Z</time>
      </trkpt>
      <trkpt lat="46.1663283812" lon="1.85344302746">
        <ele>468.6</ele>
        <time>2011-05-15T08:32:42Z</time>
      </trkpt>
      <trkpt lat="46.166375739" lon="1.85348912791">
        <ele>468.6</ele>
        <time>2011-05-15T08:32:44Z</time>
      </trkpt>
      <trkpt lat="46.1665143756" lon="1.85368325271">
        <ele>468.6</ele>
        <time>2011-05-15T08:32:51Z</time>
      </trkpt>
      <trkpt lat="46.1666036428" lon="1.85383370781">
        <ele>469.4</ele>
        <time>2011-05-15T08:32:56Z</time>
      </trkpt>
      <trkpt lat="46.1666734641" lon="1.85400763224">
        <ele>469.8</ele>
        <time>2011-05-15T08:33:01Z</time>
      </trkpt>
      <trkpt lat="46.1667637371" lon="1.85421885612">
        <ele>470.2</ele>
        <time>2011-05-15T08:33:07Z</time>
      </trkpt>
      <trkpt lat="46.1668499869" lon="1.85439420547">
        <ele>471.2</ele>
        <time>2011-05-15T08:33:12Z</time>
      </trkpt>
      <trkpt lat="46.1669173774" lon="1.8545774338">
        <ele>471.8</ele>
        <time>2011-05-15T08:33:17Z</time>
      </trkpt>
      <trkpt lat="46.1670021184" lon="1.85480609203">
        <ele>472.2</ele>
        <time>2011-05-15T08:33:23Z</time>
      </trkpt>
      <trkpt lat="46.167081495" lon="1.85498965564">
        <ele>472.8</ele>
        <time>2011-05-15T08:33:28Z</time>
      </trkpt>
      <trkpt lat="46.1671529087" lon="1.85516819011">
        <ele>473.6</ele>
        <time>2011-05-15T08:33:33Z</time>
      </trkpt>
      <trkpt lat="46.167223652" lon="1.85535074789">
        <ele>474</ele>
        <time>2011-05-15T08:33:38Z</time>
      </trkpt>
      <trkpt lat="46.1673169425" lon="1.85556507308">
        <ele>474.4</ele>
        <time>2011-05-15T08:33:44Z</time>
      </trkpt>
      <trkpt lat="46.1673955647" lon="1.85578761252">
        <ele>474.6</ele>
        <time>2011-05-15T08:33:50Z</time>
      </trkpt>
      <trkpt lat="46.1674620332" lon="1.855957346">
        <ele>474.6</ele>
        <time>2011-05-15T08:33:55Z</time>
      </trkpt>
      <trkpt lat="46.1675609396" lon="1.85617418575">
        <ele>474.4</ele>
        <time>2011-05-15T08:34:01Z</time>
      </trkpt>
      <trkpt lat="46.1676571638" lon="1.85634928364">
        <ele>473.8</ele>
        <time>2011-05-15T08:34:06Z</time>
      </trkpt>
      <trkpt lat="46.167813151" lon="1.85650644427">
        <ele>473.2</ele>
        <time>2011-05-15T08:34:12Z</time>
      </trkpt>
      <trkpt lat="46.1679619297" lon="1.85662882001">
        <ele>472.8</ele>
        <time>2011-05-15T08:34:17Z</time>
      </trkpt>
      <trkpt lat="46.1681055117" lon="1.85681942441">
        <ele>471.8</ele>
        <time>2011-05-15T08:34:23Z</time>
      </trkpt>
      <trkpt lat="46.1682148117" lon="1.85697599831">
        <ele>471.2</ele>
        <time>2011-05-15T08:34:28Z</time>
      </trkpt>
      <trkpt lat="46.1683474133" lon="1.85715788554">
        <ele>470.8</ele>
        <time>2011-05-15T08:34:34Z</time>
      </trkpt>
      <trkpt lat="46.1684975331" lon="1.8573584644">
        <ele>470.4</ele>
        <time>2011-05-15T08:34:41Z</time>
      </trkpt>
      <trkpt lat="46.1686251895" lon="1.85753406521">
        <ele>469.6</ele>
        <time>2011-05-15T08:34:47Z</time>
      </trkpt>
      <trkpt lat="46.1687271972" lon="1.85768628051">
        <ele>469.2</ele>
        <time>2011-05-15T08:34:52Z</time>
      </trkpt>
      <trkpt lat="46.1688364972" lon="1.85782483332">
        <ele>468.8</ele>
        <time>2011-05-15T08:34:57Z</time>
      </trkpt>
      <trkpt lat="46.1689844377" lon="1.85800630145">
        <ele>468.6</ele>
        <time>2011-05-15T08:35:04Z</time>
      </trkpt>
      <trkpt lat="46.1690920613" lon="1.85815725947">
        <ele>468.4</ele>
        <time>2011-05-15T08:35:10Z</time>
      </trkpt>
      <trkpt lat="46.1691989305" lon="1.85832749586">
        <ele>467.4</ele>
        <time>2011-05-15T08:35:16Z</time>
      </trkpt>
      <trkpt lat="46.1693425963" lon="1.85854282687">
        <ele>467</ele>
        <time>2011-05-15T08:35:24Z</time>
      </trkpt>
      <trkpt lat="46.1694820711" lon="1.85872898887">
        <ele>466.6</ele>
        <time>2011-05-15T08:35:31Z</time>
      </trkpt>
      <trkpt lat="46.1696059556" lon="1.85888380256">
        <ele>466.6</ele>
        <time>2011-05-15T08:35:37Z</time>
      </trkpt>
      <trkpt lat="46.1697186083" lon="1.85903761043">
        <ele>466.6</ele>
        <time>2011-05-15T08:35:43Z</time>
      </trkpt>
      <trkpt lat="46.1698305905" lon="1.85919317849">
        <ele>466.6</ele>
        <time>2011-05-15T08:35:49Z</time>
      </trkpt>
      <trkpt lat="46.1699319277" lon="1.85933776627">
        <ele>466.4</ele>
        <time>2011-05-15T08:35:55Z</time>
      </trkpt>
      <trkpt lat="46.1700195185" lon="1.85945947146">
        <ele>466.4</ele>
        <time>2011-05-15T08:36:00Z</time>
      </trkpt>
      <trkpt lat="46.1701196822" lon="1.8595677656">
        <ele>466.4</ele>
        <time>2011-05-15T08:36:05Z</time>
      </trkpt>
      <trkpt lat="46.1702108773" lon="1.85968150799">
        <ele>466.4</ele>
        <time>2011-05-15T08:36:10Z</time>
      </trkpt>
      <trkpt lat="46.1703260446" lon="1.85983447766">
        <ele>466.4</ele>
        <time>2011-05-15T08:36:16Z</time>
      </trkpt>
      <trkpt lat="46.1704539524" lon="1.85998619005">
        <ele>467</ele>
        <time>2011-05-15T08:36:22Z</time>
      </trkpt>
      <trkpt lat="46.1705840395" lon="1.86016656854">
        <ele>467.8</ele>
        <time>2011-05-15T08:36:29Z</time>
      </trkpt>
      <trkpt lat="46.1707044036" lon="1.86032942886">
        <ele>468.2</ele>
        <time>2011-05-15T08:36:35Z</time>
      </trkpt>
      <trkpt lat="46.1708078362" lon="1.86045473826">
        <ele>468.2</ele>
        <time>2011-05-15T08:36:40Z</time>
      </trkpt>
      <trkpt lat="46.1709494065" lon="1.86063771514">
        <ele>468.4</ele>
        <time>2011-05-15T08:36:47Z</time>
      </trkpt>
      <trkpt lat="46.1710655797" lon="1.86076973006">
        <ele>468.4</ele>
        <time>2011-05-15T08:36:52Z</time>
      </trkpt>
      <trkpt lat="46.1712056412" lon="1.86095547297">
        <ele>468.4</ele>
        <time>2011-05-15T08:36:59Z</time>
      </trkpt>
      <trkpt lat="46.1713343872" lon="1.86111866856">
        <ele>469</ele>
        <time>2011-05-15T08:37:05Z</time>
      </trkpt>
      <trkpt lat="46.1714778853" lon="1.86130575257">
        <ele>469.8</ele>
        <time>2011-05-15T08:37:12Z</time>
      </trkpt>
      <trkpt lat="46.1715781328" lon="1.86143475001">
        <ele>470.2</ele>
        <time>2011-05-15T08:37:17Z</time>
      </trkpt>
      <trkpt lat="46.171702185" lon="1.86159467666">
        <ele>470.4</ele>
        <time>2011-05-15T08:37:23Z</time>
      </trkpt>
      <trkpt lat="46.1718272429" lon="1.86176742762">
        <ele>470.4</ele>
        <time>2011-05-15T08:37:29Z</time>
      </trkpt>
      <trkpt lat="46.1719497863" lon="1.86194260933">
        <ele>470.6</ele>
        <time>2011-05-15T08:37:35Z</time>
      </trkpt>
      <trkpt lat="46.1720928653" lon="1.86214159564">
        <ele>470.6</ele>
        <time>2011-05-15T08:37:42Z</time>
      </trkpt>
      <trkpt lat="46.1722230362" lon="1.86232205794">
        <ele>470.6</ele>
        <time>2011-05-15T08:37:48Z</time>
      </trkpt>
      <trkpt lat="46.1723732399" lon="1.862486427">
        <ele>470.6</ele>
        <time>2011-05-15T08:37:54Z</time>
      </trkpt>
      <trkpt lat="46.1724781813" lon="1.86265079606">
        <ele>470.6</ele>
        <time>2011-05-15T08:37:59Z</time>
      </trkpt>
      <trkpt lat="46.1725962822" lon="1.86281491366">
        <ele>470.6</ele>
        <time>2011-05-15T08:38:04Z</time>
      </trkpt>
      <trkpt lat="46.1727103599" lon="1.8629791989">
        <ele>470.6</ele>
        <time>2011-05-15T08:38:09Z</time>
      </trkpt>
      <trkpt lat="46.1728417043" lon="1.86318095124">
        <ele>469.6</ele>
        <time>2011-05-15T08:38:15Z</time>
      </trkpt>
      <trkpt lat="46.1729699473" lon="1.86337700388">
        <ele>468.4</ele>
        <time>2011-05-15T08:38:21Z</time>
      </trkpt>
      <trkpt lat="46.1730839412" lon="1.86355252086">
        <ele>467.4</ele>
        <time>2011-05-15T08:38:26Z</time>
      </trkpt>
      <trkpt lat="46.1732194765" lon="1.8637507528">
        <ele>466</ele>
        <time>2011-05-15T08:38:32Z</time>
      </trkpt>
      <trkpt lat="46.1733301176" lon="1.86397488481">
        <ele>464.2</ele>
        <time>2011-05-15T08:38:38Z</time>
      </trkpt>
      <trkpt lat="46.1734232405" lon="1.86419775953">
        <ele>462.4</ele>
        <time>2011-05-15T08:38:44Z</time>
      </trkpt>
      <trkpt lat="46.1735081491" lon="1.86443781714">
        <ele>460.8</ele>
        <time>2011-05-15T08:38:50Z</time>
      </trkpt>
      <trkpt lat="46.1735853464" lon="1.86464258696">
        <ele>459.6</ele>
        <time>2011-05-15T08:38:55Z</time>
      </trkpt>
      <trkpt lat="46.1736606159" lon="1.86490158767">
        <ele>458.8</ele>
        <time>2011-05-15T08:39:01Z</time>
      </trkpt>
      <trkpt lat="46.1737287608" lon="1.8651641926">
        <ele>457.4</ele>
        <time>2011-05-15T08:39:07Z</time>
      </trkpt>
      <trkpt lat="46.1737586841" lon="1.86538916279">
        <ele>456.6</ele>
        <time>2011-05-15T08:39:12Z</time>
      </trkpt>
      <trkpt lat="46.1737896972" lon="1.86564296672">
        <ele>456.2</ele>
        <time>2011-05-15T08:39:18Z</time>
      </trkpt>
      <trkpt lat="46.173810149" lon="1.86589559719">
        <ele>456</ele>
        <time>2011-05-15T08:39:24Z</time>
      </trkpt>
      <trkpt lat="46.1738070477" lon="1.86615853739">
        <ele>455.4</ele>
        <time>2011-05-15T08:39:30Z</time>
      </trkpt>
      <trkpt lat="46.1737726819" lon="1.86644570129">
        <ele>454.6</ele>
        <time>2011-05-15T08:39:36Z</time>
      </trkpt>
      <trkpt lat="46.1737642162" lon="1.86673579885">
        <ele>454.2</ele>
        <time>2011-05-15T08:39:42Z</time>
      </trkpt>
      <trkpt lat="46.1737462789" lon="1.86703344012">
        <ele>453.8</ele>
        <time>2011-05-15T08:39:49Z</time>
      </trkpt>
      <trkpt lat="46.1737304371" lon="1.86728833369">
        <ele>452.8</ele>
        <time>2011-05-15T08:39:55Z</time>
      </trkpt>
      <trkpt lat="46.1737135895" lon="1.86750064722">
        <ele>452.2</ele>
        <time>2011-05-15T08:40:00Z</time>
      </trkpt>
      <trkpt lat="46.1737054591" lon="1.86774791327">
        <ele>452</ele>
        <time>2011-05-15T08:40:06Z</time>
      </trkpt>
      <trkpt lat="46.1736974124" lon="1.86799794535">
        <ele>450.8</ele>
        <time>2011-05-15T08:40:12Z</time>
      </trkpt>
      <trkpt lat="46.1737189539" lon="1.86825350948">
        <ele>450.2</ele>
        <time>2011-05-15T08:40:18Z</time>
      </trkpt>
      <trkpt lat="46.173754577" lon="1.86846557155">
        <ele>449.6</ele>
        <time>2011-05-15T08:40:23Z</time>
      </trkpt>
      <trkpt lat="46.1737729334" lon="1.86854788181">
        <ele>449.2</ele>
        <time>2011-05-15T08:40:25Z</time>
      </trkpt>
      <trkpt lat="46.1738162678" lon="1.8687198784">
        <ele>448.6</ele>
        <time>2011-05-15T08:40:29Z</time>
      </trkpt>
      <trkpt lat="46.1738979913" lon="1.86897058102">
        <ele>447.6</ele>
        <time>2011-05-15T08:40:35Z</time>
      </trkpt>
      <trkpt lat="46.1740191098" lon="1.86919161173">
        <ele>446.6</ele>
        <time>2011-05-15T08:40:41Z</time>
      </trkpt>
      <trkpt lat="46.1741164236" lon="1.86928926086">
        <ele>446.2</ele>
        <time>2011-05-15T08:40:45Z</time>
      </trkpt>
      <trkpt lat="46.1742934494" lon="1.86934382703">
        <ele>444.8</ele>
        <time>2011-05-15T08:40:51Z</time>
      </trkpt>
      <trkpt lat="46.1744516158" lon="1.86937836046">
        <ele>444.2</ele>
        <time>2011-05-15T08:40:56Z</time>
      </trkpt>
      <trkpt lat="46.1746515241" lon="1.86945262409">
        <ele>443.2</ele>
        <time>2011-05-15T08:41:03Z</time>
      </trkpt>
      <trkpt lat="46.1748034041" lon="1.86948908536">
        <ele>442.2</ele>
        <time>2011-05-15T08:41:09Z</time>
      </trkpt>
      <trkpt lat="46.1749531887" lon="1.8695241217">
        <ele>441.8</ele>
        <time>2011-05-15T08:41:14Z</time>
      </trkpt>
      <trkpt lat="46.1751525103" lon="1.86956200789">
        <ele>441.6</ele>
        <time>2011-05-15T08:41:20Z</time>
      </trkpt>
      <trkpt lat="46.175245717" lon="1.86960123518">
        <ele>441.4</ele>
        <time>2011-05-15T08:41:23Z</time>
      </trkpt>
      <trkpt lat="46.1753845213" lon="1.86961900481">
        <ele>441.4</ele>
        <time>2011-05-15T08:41:28Z</time>
      </trkpt>
      <trkpt lat="46.1755637263" lon="1.86963669062">
        <ele>441.2</ele>
        <time>2011-05-15T08:41:34Z</time>
      </trkpt>
      <trkpt lat="46.1757406682" lon="1.8696701344">
        <ele>440.6</ele>
        <time>2011-05-15T08:41:40Z</time>
      </trkpt>
      <trkpt lat="46.1759240642" lon="1.86971598339">
        <ele>440</ele>
        <time>2011-05-15T08:41:46Z</time>
      </trkpt>
      <trkpt lat="46.1760003395" lon="1.86971212772">
        <ele>439.4</ele>
        <time>2011-05-15T08:41:48Z</time>
      </trkpt>
      <trkpt lat="46.1761653791" lon="1.86975806053">
        <ele>438.4</ele>
        <time>2011-05-15T08:41:53Z</time>
      </trkpt>
      <trkpt lat="46.1763174267" lon="1.86980038912">
        <ele>438</ele>
        <time>2011-05-15T08:41:58Z</time>
      </trkpt>
      <trkpt lat="46.1764998169" lon="1.86985520675">
        <ele>436.8</ele>
        <time>2011-05-15T08:42:04Z</time>
      </trkpt>
      <trkpt lat="46.1766935226" lon="1.86991564025">
        <ele>436</ele>
        <time>2011-05-15T08:42:10Z</time>
      </trkpt>
      <trkpt lat="46.1768988791" lon="1.86995361026">
        <ele>435.6</ele>
        <time>2011-05-15T08:42:16Z</time>
      </trkpt>
      <trkpt lat="46.1770951832" lon="1.87001647451">
        <ele>435</ele>
        <time>2011-05-15T08:42:22Z</time>
      </trkpt>
      <trkpt lat="46.1772866258" lon="1.87006349697">
        <ele>434</ele>
        <time>2011-05-15T08:42:28Z</time>
      </trkpt>
      <trkpt lat="46.1774865342" lon="1.87010901068">
        <ele>433.6</ele>
        <time>2011-05-15T08:42:34Z</time>
      </trkpt>
      <trkpt lat="46.1776862748" lon="1.87015494349">
        <ele>433.4</ele>
        <time>2011-05-15T08:42:40Z</time>
      </trkpt>
      <trkpt lat="46.1778739456" lon="1.87020112776">
        <ele>432.4</ele>
        <time>2011-05-15T08:42:46Z</time>
      </trkpt>
      <trkpt lat="46.1780615325" lon="1.87024161234">
        <ele>431.8</ele>
        <time>2011-05-15T08:42:52Z</time>
      </trkpt>
      <trkpt lat="46.1782491194" lon="1.87028695842">
        <ele>431.4</ele>
        <time>2011-05-15T08:42:58Z</time>
      </trkpt>
      <trkpt lat="46.1784365387" lon="1.87032082129">
        <ele>431.2</ele>
        <time>2011-05-15T08:43:04Z</time>
      </trkpt>
      <trkpt lat="46.1785524604" lon="1.87035962949">
        <ele>431.2</ele>
        <time>2011-05-15T08:43:08Z</time>
      </trkpt>
      <trkpt lat="46.1785809588" lon="1.87036499391">
        <ele>431.2</ele>
        <time>2011-05-15T08:43:09Z</time>
      </trkpt>
      <trkpt lat="46.1786996465" lon="1.87047731137">
        <ele>431</ele>
        <time>2011-05-15T08:43:15Z</time>
      </trkpt>
      <trkpt lat="46.1787237864" lon="1.8704681751">
        <ele>431</ele>
        <time>2011-05-15T08:43:16Z</time>
      </trkpt>
      <trkpt lat="46.1788645185" lon="1.87045384205">
        <ele>431.8</ele>
        <time>2011-05-15T08:43:21Z</time>
      </trkpt>
      <trkpt lat="46.1790422986" lon="1.87052064579">
        <ele>433</ele>
        <time>2011-05-15T08:43:27Z</time>
      </trkpt>
      <trkpt lat="46.1791838689" lon="1.87068694269">
        <ele>434</ele>
        <time>2011-05-15T08:43:33Z</time>
      </trkpt>
      <trkpt lat="46.1792616529" lon="1.87087662508">
        <ele>434.6</ele>
        <time>2011-05-15T08:43:38Z</time>
      </trkpt>
      <trkpt lat="46.1793168058" lon="1.8711400682">
        <ele>435.8</ele>
        <time>2011-05-15T08:43:44Z</time>
      </trkpt>
      <trkpt lat="46.1793418677" lon="1.87140502006">
        <ele>436.4</ele>
        <time>2011-05-15T08:43:50Z</time>
      </trkpt>
      <trkpt lat="46.1793557817" lon="1.87163376211">
        <ele>436.8</ele>
        <time>2011-05-15T08:43:55Z</time>
      </trkpt>
      <trkpt lat="46.1793549435" lon="1.87186183361">
        <ele>436.4</ele>
        <time>2011-05-15T08:44:00Z</time>
      </trkpt>
      <trkpt lat="46.1793467292" lon="1.8720858818">
        <ele>435.8</ele>
        <time>2011-05-15T08:44:05Z</time>
      </trkpt>
      <trkpt lat="46.1794031394" lon="1.87231697078">
        <ele>434.6</ele>
        <time>2011-05-15T08:44:11Z</time>
      </trkpt>
      <trkpt lat="46.1794818455" lon="1.87253490018">
        <ele>433.6</ele>
        <time>2011-05-15T08:44:16Z</time>
      </trkpt>
      <trkpt lat="46.1795692687" lon="1.87270983043">
        <ele>432.4</ele>
        <time>2011-05-15T08:44:21Z</time>
      </trkpt>
      <trkpt lat="46.179701116" lon="1.87292239542">
        <ele>431.2</ele>
        <time>2011-05-15T08:44:27Z</time>
      </trkpt>
      <trkpt lat="46.1798250843" lon="1.8731605252">
        <ele>430</ele>
        <time>2011-05-15T08:44:33Z</time>
      </trkpt>
      <trkpt lat="46.1799275111" lon="1.87339178182">
        <ele>429.4</ele>
        <time>2011-05-15T08:44:39Z</time>
      </trkpt>
      <trkpt lat="46.1800177841" lon="1.87365296182">
        <ele>428.4</ele>
        <time>2011-05-15T08:44:45Z</time>
      </trkpt>
      <trkpt lat="46.1800952329" lon="1.87389209743">
        <ele>427.6</ele>
        <time>2011-05-15T08:44:51Z</time>
      </trkpt>
      <trkpt lat="46.1801620366" lon="1.87418160825">
        <ele>427</ele>
        <time>2011-05-15T08:44:58Z</time>
      </trkpt>
      <trkpt lat="46.1802314388" lon="1.87442300697">
        <ele>426.6</ele>
        <time>2011-05-15T08:45:04Z</time>
      </trkpt>
      <trkpt lat="46.1803080493" lon="1.87466314841">
        <ele>425.6</ele>
        <time>2011-05-15T08:45:10Z</time>
      </trkpt>
      <trkpt lat="46.1803445944" lon="1.87477948918">
        <ele>425.4</ele>
        <time>2011-05-15T08:45:13Z</time>
      </trkpt>
      <trkpt lat="46.1803838217" lon="1.87489147137">
        <ele>425.2</ele>
        <time>2011-05-15T08:45:16Z</time>
      </trkpt>
      <trkpt lat="46.1804173493" lon="1.87504486014">
        <ele>425</ele>
        <time>2011-05-15T08:45:20Z</time>
      </trkpt>
      <trkpt lat="46.1804937922" lon="1.87525591638">
        <ele>423.8</ele>
        <time>2011-05-15T08:45:26Z</time>
      </trkpt>
      <trkpt lat="46.180590687" lon="1.87547669562">
        <ele>422.8</ele>
        <time>2011-05-15T08:45:33Z</time>
      </trkpt>
      <trkpt lat="46.1806184311" lon="1.87554593012">
        <ele>422.2</ele>
        <time>2011-05-15T08:45:36Z</time>
      </trkpt>
    </trkseg>
  </trk>
</gpx>